createdAt,value
2022-12-16T00:23:40.768Z,98122.84
2022-12-16T00:26:44.330Z,98131.41
2022-12-16T00:29:28.821Z,98116.06
2022-12-16T00:32:29.147Z,98167.06
2022-12-16T00:35:46.071Z,98116.06
2022-12-16T00:41:21.371Z,98133.03
2022-12-16T00:44:04.229Z,98156.88
2022-12-16T00:46:32.623Z,98147.50
2022-12-16T00:49:04.341Z,98160.28
2022-12-16T00:51:50.446Z,98133.06
2022-12-16T00:54:27.470Z,98149.22
2022-12-16T00:56:57.293Z,98133.97
2022-12-16T00:59:42.692Z,98141.63
2022-12-16T01:02:16.022Z,98115.28
2022-12-16T01:04:47.943Z,98119.56
2022-12-16T01:07:17.570Z,98124.69
2022-12-16T01:09:45.967Z,98122.97
2022-12-16T01:12:16.281Z,98106.03
2022-12-16T01:14:53.827Z,98112.81
2022-12-16T01:17:45.534Z,98097.53
2022-12-16T01:20:23.824Z,98075.53
2022-12-16T01:23:04.277Z,98117.16
2022-12-16T01:25:39.048Z,98077.25
2022-12-16T01:31:42.046Z,98085.78
2022-12-16T01:35:29.451Z,98081.56
2022-12-16T01:37:36.205Z,98052.72
2022-12-16T01:40:43.971Z,98029.84
2022-12-16T01:43:43.321Z,98062.94
2022-12-16T01:46:16.026Z,98063.81
2022-12-16T01:49:01.970Z,98023.09
2022-12-16T01:51:39.939Z,98014.63
2022-12-16T01:54:21.558Z,98026.50
2022-12-16T01:56:54.078Z,98017.19
2022-12-16T01:59:31.981Z,98011.25
2022-12-16T02:02:02.817Z,98009.59
2022-12-16T02:04:36.280Z,98010.50
2022-12-16T02:07:03.351Z,97971.47
2022-12-16T02:09:31.581Z,97985.06
2022-12-16T02:12:28.963Z,98015.59
2022-12-16T02:15:10.990Z,97991.84
2022-12-16T02:17:56.818Z,97996.09
2022-12-16T02:20:51.541Z,98000.34
2022-12-16T02:23:51.043Z,97993.59
2022-12-16T02:26:51.714Z,97976.63
2022-12-16T02:29:51.757Z,97937.63
2022-12-16T02:32:37.609Z,97964.78
2022-12-16T02:35:08.911Z,97953.78
2022-12-16T02:37:43.499Z,97926.69
2022-12-16T02:40:23.237Z,97898.69
2022-12-16T02:42:53.697Z,97892.81
2022-12-16T02:45:27.356Z,97880.94
2022-12-16T02:47:54.803Z,97873.31
2022-12-16T02:50:45.159Z,97891.97
2022-12-16T02:53:14.823Z,97869.97
2022-12-16T02:56:13.364Z,97907.25
2022-12-16T02:59:24.546Z,97883.53
2022-12-16T03:02:13.809Z,97910.63
2022-12-16T03:05:27.278Z,97863.16
2022-12-16T03:07:52.073Z,97852.19
2022-12-16T03:10:25.048Z,97848.78
2022-12-16T03:13:10.287Z,97830.16
2022-12-16T03:15:50.269Z,97854.72
2022-12-16T03:18:40.373Z,97858.97
2022-12-16T03:21:42.074Z,97844.56
2022-12-16T03:24:31.030Z,97866.59
2022-12-16T03:27:22.054Z,97876.78
2022-12-16T03:30:06.727Z,97871.72
2022-12-16T03:32:53.443Z,97875.06
2022-12-16T03:35:50.554Z,97867.44
2022-12-16T03:38:41.846Z,97875.91
2022-12-16T03:41:17.399Z,97895.38
2022-12-16T03:44:35.582Z,97847.09
2022-12-16T03:47:53.439Z,97870.84
2022-12-16T03:50:18.384Z,97847.13
2022-12-16T03:53:32.535Z,97863.22
2022-12-16T03:56:24.689Z,97878.47
2022-12-16T03:59:00.045Z,97877.59
2022-12-16T04:01:28.477Z,97828.50
2022-12-16T04:04:16.138Z,97825.13
2022-12-16T04:07:27.802Z,97824.28
2022-12-16T04:09:57.902Z,97806.50
2022-12-16T04:12:49.431Z,97800.56
2022-12-16T04:18:50.784Z,97787.88
2022-12-16T04:21:44.647Z,97787.06
2022-12-16T04:24:28.564Z,97760.81
2022-12-16T04:27:19.897Z,97773.50
2022-12-16T04:30:16.106Z,97758.28
2022-12-16T04:33:07.980Z,97772.66
2022-12-16T04:35:59.402Z,97767.56
2022-12-16T04:38:51.440Z,97758.28
2022-12-16T04:41:40.447Z,97758.28
2022-12-16T04:44:55.904Z,97770.09
2022-12-16T04:47:50.346Z,97762.50
2022-12-16T04:51:28.945Z,97727.81
2022-12-16T04:53:50.582Z,97747.25
2022-12-16T04:56:37.419Z,97723.59
2022-12-16T04:59:26.592Z,97720.19
2022-12-16T05:02:18.339Z,97706.63
2022-12-16T05:05:10.352Z,97727.81
2022-12-16T05:08:03.226Z,97685.50
2022-12-16T05:10:51.513Z,97686.34
2022-12-16T05:13:37.000Z,97684.63
2022-12-16T05:16:22.772Z,97690.56
2022-12-16T05:19:15.652Z,97711.72
2022-12-16T05:22:02.385Z,97660.13
2022-12-16T05:24:58.224Z,97677.88
2022-12-16T05:27:49.779Z,97678.72
2022-12-16T05:30:52.146Z,97688.03
2022-12-16T05:33:48.431Z,97673.63
2022-12-16T05:36:36.300Z,97665.19
2022-12-16T05:39:26.740Z,97674.47
2022-12-16T05:42:14.372Z,97661.78
2022-12-16T05:45:14.299Z,97655.03
2022-12-16T05:47:59.886Z,97664.34
2022-12-16T05:51:08.932Z,97678.72
2022-12-16T05:54:11.922Z,97677.84
2022-12-16T05:57:11.239Z,97658.41
2022-12-16T06:00:14.263Z,97677.03
2022-12-16T06:03:25.561Z,97697.31
2022-12-16T06:06:17.068Z,97699.88
2022-12-16T06:09:39.483Z,97677.88
2022-12-16T06:12:34.033Z,97713.41
2022-12-16T06:16:09.458Z,97704.13
2022-12-16T06:18:53.708Z,97707.50
2022-12-16T06:22:05.623Z,97719.34
2022-12-16T06:24:54.788Z,97732.06
2022-12-16T06:28:34.440Z,97775.22
2022-12-16T06:30:54.730Z,97722.72
2022-12-16T06:33:59.350Z,97733.75
2022-12-16T06:37:06.259Z,97745.56
2022-12-16T06:41:42.211Z,97752.34
2022-12-16T06:43:52.528Z,97787.06
2022-12-16T06:50:16.291Z,97770.97
2022-12-16T06:53:05.460Z,97765.88
2022-12-16T06:56:08.052Z,97766.75
2022-12-16T07:03:34.053Z,97824.28
2022-12-16T07:07:54.493Z,97815.84
2022-12-16T07:09:42.964Z,97820.06
2022-12-16T07:12:32.119Z,97849.69
2022-12-16T07:39:48.784Z,97825.97
2022-12-16T07:43:26.664Z,97845.47
2022-12-16T07:47:04.741Z,97856.47
2022-12-16T07:50:00.569Z,97895.44
2022-12-16T08:14:45.815Z,97889.50
2022-12-16T08:18:00.598Z,97888.63
2022-12-16T08:22:43.017Z,97899.66
2022-12-16T08:41:54.327Z,97968.25
2022-12-16T08:43:32.977Z,97949.59
2022-12-16T09:06:19.601Z,97934.34
2022-12-16T09:09:21.729Z,97967.44
2022-12-16T09:27:12.791Z,97944.53
2022-12-16T09:35:13.592Z,97997.97
2022-12-16T09:37:54.247Z,97956.41
2022-12-16T10:01:24.564Z,97968.28
2022-12-16T10:04:18.014Z,97996.28
2022-12-16T10:07:18.575Z,97977.63
2022-12-16T10:10:08.111Z,98010.69
2022-12-16T10:13:12.055Z,97952.22
2022-12-16T10:16:23.089Z,98001.38
2022-12-16T10:20:08.942Z,97970.81
2022-12-16T10:23:35.528Z,97970.00
2022-12-16T10:26:45.212Z,97982.72
2022-12-16T10:29:38.574Z,97994.59
2022-12-16T10:32:44.242Z,98000.53
2022-12-16T10:35:44.003Z,97982.72
2022-12-16T10:38:51.089Z,97977.63
2022-12-16T10:41:40.206Z,97992.88
2022-12-16T10:44:55.836Z,97986.94
2022-12-16T10:47:52.819Z,98006.47
2022-12-16T10:50:56.754Z,97995.44
2022-12-16T10:53:52.896Z,97994.56
2022-12-16T10:57:09.680Z,98020.88
2022-12-16T11:00:38.767Z,98035.31
2022-12-16T11:03:42.078Z,97986.09
2022-12-16T11:06:30.253Z,98013.25
2022-12-16T11:09:36.303Z,98001.38
2022-12-16T11:12:44.606Z,98020.88
2022-12-16T11:15:50.178Z,98023.41
2022-12-16T11:18:37.917Z,97988.66
2022-12-16T11:21:25.552Z,97997.16
2022-12-16T11:24:29.177Z,98017.50
2022-12-16T11:27:20.248Z,97997.13
2022-12-16T11:30:14.756Z,98042.09
2022-12-16T11:33:30.870Z,98007.28
2022-12-16T11:36:26.195Z,98006.47
2022-12-16T11:39:11.630Z,98015.78
2022-12-16T11:41:58.935Z,97992.03
2022-12-16T11:45:00.149Z,98042.09
2022-12-16T11:47:54.878Z,98052.25
2022-12-16T11:50:40.428Z,98020.88
2022-12-16T11:53:31.693Z,98030.22
2022-12-16T11:56:19.984Z,98040.38
2022-12-16T11:59:08.555Z,98035.31
2022-12-16T12:02:06.757Z,98066.69
2022-12-16T12:04:54.714Z,98034.44
2022-12-16T12:07:48.938Z,98085.31
2022-12-16T12:10:52.588Z,98097.22
2022-12-16T12:14:06.883Z,98094.66
2022-12-16T12:17:14.965Z,98076.00
2022-12-16T12:20:10.119Z,98059.88
2022-12-16T12:22:57.322Z,98040.41
2022-12-16T12:25:47.406Z,98025.13
2022-12-16T12:29:10.980Z,98037.84
2022-12-16T12:32:17.223Z,98057.34
2022-12-16T12:35:18.538Z,98016.66
2022-12-16T12:38:07.560Z,98023.41
2022-12-16T12:41:09.448Z,98070.94
2022-12-16T12:44:02.823Z,98083.66
2022-12-16T12:46:57.817Z,98053.94
2022-12-16T12:50:01.910Z,98096.38
2022-12-16T12:53:20.553Z,98093.00
2022-12-16T12:56:32.416Z,98104.84
2022-12-16T12:59:19.981Z,98089.59
2022-12-16T13:02:05.563Z,98087.84
2022-12-16T13:04:51.374Z,98101.44
2022-12-16T13:07:36.707Z,98070.06
2022-12-16T13:10:44.168Z,98125.22
2022-12-16T13:13:36.424Z,98134.53
2022-12-16T13:16:23.291Z,98114.16
2022-12-16T13:19:42.254Z,98134.53
2022-12-16T13:22:48.742Z,98125.19
2022-12-16T13:25:59.818Z,98141.34
2022-12-16T13:28:53.283Z,98095.50
2022-12-16T13:31:38.682Z,98111.59
2022-12-16T13:34:33.347Z,98139.63
2022-12-16T13:37:26.906Z,98103.13
2022-12-16T13:40:24.433Z,98115.03
2022-12-16T13:43:12.465Z,98125.22
2022-12-16T13:46:22.912Z,98120.97
2022-12-16T13:49:10.128Z,98131.97
2022-12-16T13:51:55.616Z,98162.56
2022-12-16T13:55:11.230Z,98130.28
2022-12-16T13:57:59.787Z,98130.28
2022-12-16T14:00:45.837Z,98132.81
2022-12-16T14:03:48.385Z,98149.78
2022-12-16T14:06:39.770Z,98129.44
2022-12-16T14:09:31.855Z,98133.66
2022-12-16T14:12:23.907Z,98164.25
2022-12-16T14:15:20.932Z,98151.50
2022-12-16T14:18:58.382Z,98175.28
2022-12-16T14:21:56.288Z,98156.59
2022-12-16T14:24:43.924Z,98156.59
2022-12-16T14:27:47.406Z,98146.38
2022-12-16T14:30:44.787Z,98142.13
2022-12-16T14:33:48.108Z,98164.22
2022-12-16T14:36:41.707Z,98184.56
2022-12-16T14:40:03.580Z,98162.47
2022-12-16T14:42:59.419Z,98183.69
2022-12-16T14:46:30.245Z,98193.88
2022-12-16T14:57:06.535Z,98225.16
2022-12-16T15:00:21.552Z,98240.47
2022-12-16T15:03:46.541Z,98262.56
2022-12-16T15:07:39.211Z,98252.34
2022-12-16T15:10:09.571Z,98259.09
2022-12-16T15:13:21.886Z,98303.28
2022-12-16T15:17:10.863Z,98313.44
2022-12-16T15:23:57.175Z,98291.31
2022-12-16T15:26:48.663Z,98288.72
2022-12-16T15:29:59.410Z,98311.75
2022-12-16T15:34:12.201Z,98294.75
2022-12-16T15:36:11.041Z,98278.56
2022-12-16T15:39:09.211Z,98297.22
2022-12-16T15:42:30.647Z,98308.25
2022-12-16T15:45:25.472Z,98304.84
2022-12-16T15:48:29.790Z,98315.81
2022-12-16T15:51:46.913Z,98322.63
2022-12-16T15:57:51.667Z,98372.69
2022-12-16T16:00:41.710Z,98383.75
2022-12-16T16:04:03.871Z,98354.84
2022-12-16T16:07:40.781Z,98344.59
2022-12-16T16:10:52.701Z,98375.09
2022-12-16T16:13:38.356Z,98351.28
2022-12-16T16:16:24.464Z,98360.69
2022-12-16T16:19:10.060Z,98355.53
2022-12-16T16:21:58.213Z,98364.91
2022-12-16T16:24:46.379Z,98365.66
2022-12-16T16:27:41.241Z,98352.13
2022-12-16T16:30:34.068Z,98370.75
2022-12-16T16:33:20.632Z,98345.25
2022-12-16T16:37:01.525Z,98349.44
2022-12-16T16:40:09.358Z,98379.19
2022-12-16T16:43:17.242Z,98345.16
2022-12-16T16:46:30.896Z,98397.00
2022-12-16T16:49:44.465Z,98365.47
2022-12-16T16:55:50.891Z,98357.81
2022-12-16T16:58:52.944Z,98365.47
2022-12-16T17:01:43.987Z,98398.59
2022-12-16T17:04:44.843Z,98384.94
2022-12-16T17:07:56.122Z,98384.06
2022-12-16T17:10:41.664Z,98390.97
2022-12-16T17:13:30.497Z,98371.38
2022-12-16T17:16:19.186Z,98413.09
2022-12-16T17:19:07.368Z,98401.94
2022-12-16T17:21:55.732Z,98412.97
2022-12-16T17:24:46.995Z,98407.84
2022-12-16T17:27:38.319Z,98436.75
2022-12-16T17:30:47.674Z,98440.97
2022-12-16T17:33:41.245Z,98469.03
2022-12-16T17:36:32.047Z,98450.31
2022-12-16T17:39:19.927Z,98428.16
2022-12-16T17:42:30.268Z,98417.09
2022-12-16T17:45:18.741Z,98432.38
2022-12-16T17:48:09.935Z,98440.06
2022-12-16T17:51:00.245Z,98431.50
2022-12-16T17:53:49.104Z,98451.09
2022-12-16T17:56:34.796Z,98421.28
2022-12-16T17:59:20.128Z,98472.38
2022-12-16T18:02:06.872Z,98446.81
2022-12-16T18:04:52.286Z,98428.88
2022-12-16T18:07:37.608Z,98454.34
2022-12-16T18:10:23.444Z,98456.88
2022-12-16T18:13:10.566Z,98466.25
2022-12-16T18:15:55.950Z,98447.47
2022-12-16T18:18:46.056Z,98440.66
2022-12-16T18:21:32.323Z,98441.50
2022-12-16T18:24:17.721Z,98453.41
2022-12-16T18:27:03.539Z,98456.00
2022-12-16T18:29:49.061Z,98450.88
2022-12-16T18:32:35.385Z,98472.97
2022-12-16T18:35:24.300Z,98455.09
2022-12-16T18:38:14.803Z,98466.13
2022-12-16T18:41:07.179Z,98477.19
2022-12-16T18:43:54.016Z,98463.56
2022-12-16T18:46:41.934Z,98445.66
2022-12-16T18:49:27.537Z,98462.69
2022-12-16T18:52:12.968Z,98455.00
2022-12-16T18:55:01.251Z,98486.41
2022-12-16T18:57:46.618Z,98484.72
2022-12-16T19:00:32.519Z,98476.13
2022-12-16T19:03:18.072Z,98494.81
2022-12-16T19:06:05.299Z,98517.78
2022-12-16T19:08:53.785Z,98497.31
2022-12-16T19:11:40.602Z,98512.63
2022-12-16T19:14:26.225Z,98487.09
2022-12-16T19:17:11.684Z,98499.09
2022-12-16T19:20:07.519Z,98519.53
2022-12-16T19:22:55.181Z,98469.25
2022-12-16T19:25:42.277Z,98485.47
2022-12-16T19:28:35.031Z,98520.41
2022-12-16T19:31:29.478Z,98479.38
2022-12-16T19:37:28.956Z,98521.72
2022-12-16T19:40:16.849Z,98530.13
2022-12-16T19:43:02.277Z,98552.28
2022-12-16T19:45:47.767Z,98577.88
2022-12-16T19:48:33.548Z,98552.16
2022-12-16T19:51:20.065Z,98568.31
2022-12-16T19:54:06.152Z,98560.66
2022-12-16T19:56:51.688Z,98567.47
2022-12-16T19:59:38.230Z,98565.66
2022-12-16T20:02:24.424Z,98565.66
2022-12-16T20:05:13.025Z,98576.72
2022-12-16T20:07:58.415Z,98571.56
2022-12-16T20:10:46.422Z,98569.97
2022-12-16T20:13:32.089Z,98575.94
2022-12-16T20:16:25.386Z,98566.47
2022-12-16T20:19:10.851Z,98579.34
2022-12-16T20:21:57.542Z,98569.81
2022-12-16T20:24:47.432Z,98563.00
2022-12-16T20:27:35.443Z,98549.41
2022-12-16T20:30:21.128Z,98590.28
2022-12-16T20:33:06.679Z,98574.13
2022-12-16T20:35:52.204Z,98591.13
2022-12-16T20:38:41.713Z,98577.41
2022-12-16T20:41:27.241Z,98586.84
2022-12-16T20:44:12.625Z,98563.72
2022-12-16T20:46:58.195Z,98589.22
2022-12-16T20:49:43.842Z,98587.50
2022-12-16T20:52:29.469Z,98594.25
2022-12-16T20:55:16.786Z,98596.81
2022-12-16T20:58:02.709Z,98630.84
2022-12-16T21:00:48.254Z,98620.56
2022-12-16T21:03:33.724Z,98608.59
2022-12-16T21:06:20.177Z,98635.03
2022-12-16T21:09:05.606Z,98637.44
2022-12-16T21:11:53.766Z,98651.81
2022-12-16T21:14:41.884Z,98668.09
2022-12-16T21:17:27.685Z,98645.88
2022-12-16T21:20:13.023Z,98641.63
2022-12-16T21:22:58.476Z,98636.47
2022-12-16T21:25:44.282Z,98621.16
2022-12-16T21:28:32.889Z,98637.41
2022-12-16T21:31:18.658Z,98634.00
2022-12-16T21:34:04.194Z,98665.47
2022-12-16T21:36:49.598Z,98657.59
2022-12-16T21:39:35.059Z,98688.22
2022-12-16T21:42:20.435Z,98683.13
2022-12-16T21:45:06.176Z,98692.50
2022-12-16T21:47:51.883Z,98654.97
2022-12-16T21:50:37.432Z,98661.75
2022-12-16T21:53:22.836Z,98660.78
2022-12-16T21:56:12.139Z,98700.91
2022-12-16T21:58:57.991Z,98694.75
2022-12-16T22:01:43.465Z,98676.81
2022-12-16T22:04:29.058Z,98681.88
2022-12-16T22:07:14.486Z,98699.75
2022-12-16T22:09:59.986Z,98719.28
2022-12-16T22:12:45.488Z,98722.63
2022-12-16T22:15:31.224Z,98720.78
2022-12-16T22:18:16.927Z,98731.84
2022-12-16T22:21:02.564Z,98725.03
2022-12-16T22:23:48.582Z,98731.81
2022-12-16T22:26:34.158Z,98748.78
2022-12-16T22:29:19.638Z,98742.78
2022-12-16T22:32:05.072Z,98731.63
2022-12-16T22:34:50.416Z,98738.41
2022-12-16T22:37:35.888Z,98764.13
2022-12-16T22:40:21.541Z,98738.34
2022-12-16T22:43:07.530Z,98738.28
2022-12-16T22:45:53.302Z,98751.88
2022-12-16T22:48:41.896Z,98736.50
2022-12-16T22:51:31.110Z,98750.09
2022-12-16T22:54:17.075Z,98761.91
2022-12-16T22:57:02.519Z,98776.47
2022-12-16T22:59:48.011Z,98752.47
2022-12-16T23:02:33.438Z,98763.56
2022-12-16T23:05:23.624Z,98754.06
2022-12-16T23:08:12.799Z,98755.69
2022-12-16T23:10:58.505Z,98754.94
2022-12-16T23:13:45.094Z,98757.53
2022-12-16T23:16:30.528Z,98767.78
2022-12-16T23:19:16.361Z,98760.84
2022-12-16T23:22:02.518Z,98761.66
2022-12-16T23:24:51.039Z,98759.13
2022-12-16T23:27:37.485Z,98767.56
2022-12-16T23:30:23.293Z,98742.91
2022-12-16T23:33:15.293Z,98778.69
2022-12-16T23:36:00.643Z,98753.06
2022-12-16T23:38:46.190Z,98755.53
2022-12-16T23:41:31.700Z,98764.91
2022-12-16T23:44:17.362Z,98754.56
2022-12-16T23:47:03.003Z,98791.19
2022-12-16T23:49:48.332Z,98778.34
2022-12-16T23:52:34.259Z,98791.94
2022-12-16T23:55:19.838Z,98777.34
2022-12-16T23:58:05.553Z,98769.81
